Farum, Denmark
Current Conditions -  °F | °C
As of 3:50 PM on Wednesday 22 Oct 2014 (Local Time) from EKCH Reporting Station
Broken Clouds Broken Clouds  
Wind Chill: 54°   Ceiling: 1600
Heat Index: 54°   Visibility: 6mi
Dew Point: 50°   Wind: 12mph
Humidity: 88%   Direction: 40°NE
Pressure: 29.8"   Gusts: NA
Location:  55.81°N, 12.36°E
Report Text: EKCH 221350Z 04010KT 9999 FEW013 BKN016 12/10 Q1009 TEMPOBK012
Loading
Personal Weather Stations






























Interactive Weather Map
Tropical Storm Tracking
New forecast layout! Learn more

10-Day Weather Forecast

Advertisements
Track Severe Weather on mobile